Terminal Aerodrome Forecast
Issued by NWS

Home | Current Version | Previous Version | Text Only | Print | Product List | Glossary On
Versions: 1 2 3 4 5 6 7 8 9 10 11 12 13 14 15 16 17 18 19 20
000
FTUS42 KJAX 011759 AAA
TAFVQQ
TAF AMD
KVQQ 011759Z 0118/0218 17012G18KT P6SM SCT250
     FM012300 18008KT P6SM BKN250
     FM020600 20010KT P6SM SCT050 BKN100
     FM021100 22012KT P6SM -SHRA BKN040
     FM021400 24014G22KT 4SM -SHRA BR OVC020=

USA.gov is the U.S. government's official web portal to all federal, state and local government web resources and services.